sensor_id;sensor_type;location;lat;lon;timestamp;P1;durP1;ratioP1;P2;durP2;ratioP2
4638;SDS011;2332;38.646;-9.154;2022-12-07T00:01:08;106.67;;;45.93;;
4638;SDS011;2332;38.646;-9.154;2022-12-07T00:03:41;189.93;;;56.57;;
4638;SDS011;2332;38.646;-9.154;2022-12-07T00:06:09;120.00;;;51.60;;
4638;SDS011;2332;38.646;-9.154;2022-12-07T00:08:35;222.47;;;44.43;;
4638;SDS011;2332;38.646;-9.154;2022-12-07T00:13:57;192.67;;;45.83;;
4638;SDS011;2332;38.646;-9.154;2022-12-07T00:16:25;171.47;;;44.50;;
4638;SDS011;2332;38.646;-9.154;2022-12-07T00:18:51;82.00;;;42.70;;
4638;SDS011;2332;38.646;-9.154;2022-12-07T00:21:27;126.70;;;45.10;;
4638;SDS011;2332;38.646;-9.154;2022-12-07T00:23:55;145.20;;;43.10;;
4638;SDS011;2332;38.646;-9.154;2022-12-07T00:26:22;316.70;;;50.10;;
4638;SDS011;2332;38.646;-9.154;2022-12-07T00:28:56;327.83;;;49.70;;
4638;SDS011;2332;38.646;-9.154;2022-12-07T00:31:24;292.47;;;50.80;;
4638;SDS011;2332;38.646;-9.154;2022-12-07T00:33:53;277.07;;;57.33;;
4638;SDS011;2332;38.646;-9.154;2022-12-07T00:36:19;141.30;;;52.60;;
4638;SDS011;2332;38.646;-9.154;2022-12-07T00:38:46;178.23;;;51.17;;
4638;SDS011;2332;38.646;-9.154;2022-12-07T00:41:16;152.57;;;53.60;;
4638;SDS011;2332;38.646;-9.154;2022-12-07T00:43:43;118.87;;;50.40;;
4638;SDS011;2332;38.646;-9.154;2022-12-07T00:46:10;281.37;;;52.70;;
4638;SDS011;2332;38.646;-9.154;2022-12-07T00:48:36;364.07;;;58.47;;
4638;SDS011;2332;38.646;-9.154;2022-12-07T00:51:02;334.83;;;53.07;;
4638;SDS011;2332;38.646;-9.154;2022-12-07T00:53:28;176.30;;;49.43;;
4638;SDS011;2332;38.646;-9.154;2022-12-07T00:55:54;159.73;;;45.77;;
4638;SDS011;2332;38.646;-9.154;2022-12-07T00:58:21;175.07;;;45.00;;
4638;SDS011;2332;38.646;-9.154;2022-12-07T01:00:47;390.30;;;49.10;;
4638;SDS011;2332;38.646;-9.154;2022-12-07T01:03:14;268.67;;;43.27;;
4638;SDS011;2332;38.646;-9.154;2022-12-07T01:05:40;243.57;;;38.97;;
4638;SDS011;2332;38.646;-9.154;2022-12-07T01:08:05;468.70;;;47.20;;
4638;SDS011;2332;38.646;-9.154;2022-12-07T01:10:32;664.70;;;54.40;;
4638;SDS011;2332;38.646;-9.154;2022-12-07T01:12:58;312.17;;;40.50;;
4638;SDS011;2332;38.646;-9.154;2022-12-07T01:15:24;323.47;;;41.30;;
4638;SDS011;2332;38.646;-9.154;2022-12-07T01:17:50;171.00;;;38.97;;
4638;SDS011;2332;38.646;-9.154;2022-12-07T01:20:16;718.33;;;52.57;;
4638;SDS011;2332;38.646;-9.154;2022-12-07T01:22:42;276.90;;;41.13;;
4638;SDS011;2332;38.646;-9.154;2022-12-07T01:25:08;311.77;;;41.70;;
4638;SDS011;2332;38.646;-9.154;2022-12-07T01:27:35;278.83;;;40.93;;
4638;SDS011;2332;38.646;-9.154;2022-12-07T01:30:02;126.37;;;36.40;;
4638;SDS011;2332;38.646;-9.154;2022-12-07T01:32:29;160.63;;;37.23;;
4638;SDS011;2332;38.646;-9.154;2022-12-07T01:34:55;170.03;;;39.07;;
4638;SDS011;2332;38.646;-9.154;2022-12-07T01:37:20;573.03;;;52.13;;
4638;SDS011;2332;38.646;-9.154;2022-12-07T01:39:49;398.50;;;45.97;;
4638;SDS011;2332;38.646;-9.154;2022-12-07T01:42:15;286.60;;;41.60;;
4638;SDS011;2332;38.646;-9.154;2022-12-07T01:47:46;195.17;;;40.77;;
4638;SDS011;2332;38.646;-9.154;2022-12-07T01:50:13;214.57;;;43.40;;
4638;SDS011;2332;38.646;-9.154;2022-12-07T01:52:38;65.80;;;38.13;;
4638;SDS011;2332;38.646;-9.154;2022-12-07T01:55:08;109.40;;;38.40;;
4638;SDS011;2332;38.646;-9.154;2022-12-07T01:57:37;130.87;;;40.20;;
4638;SDS011;2332;38.646;-9.154;2022-12-07T02:00:06;96.07;;;38.50;;
4638;SDS011;2332;38.646;-9.154;2022-12-07T02:02:34;298.53;;;39.53;;
4638;SDS011;2332;38.646;-9.154;2022-12-07T02:05:03;266.23;;;38.43;;
4638;SDS011;2332;38.646;-9.154;2022-12-07T02:07:30;263.07;;;36.77;;
4638;SDS011;2332;38.646;-9.154;2022-12-07T02:09:56;331.60;;;39.10;;
4638;SDS011;2332;38.646;-9.154;2022-12-07T02:12:22;453.87;;;45.13;;
4638;SDS011;2332;38.646;-9.154;2022-12-07T02:14:49;347.67;;;34.40;;
4638;SDS011;2332;38.646;-9.154;2022-12-07T02:20:29;100.97;;;29.53;;
4638;SDS011;2332;38.646;-9.154;2022-12-07T02:31:25;182.77;;;31.27;;
4638;SDS011;2332;38.646;-9.154;2022-12-07T02:34:00;78.17;;;28.00;;
4638;SDS011;2332;38.646;-9.154;2022-12-07T02:36:30;128.17;;;29.20;;
4638;SDS011;2332;38.646;-9.154;2022-12-07T02:39:03;226.37;;;30.03;;
4638;SDS011;2332;38.646;-9.154;2022-12-07T02:41:42;197.90;;;30.20;;
4638;SDS011;2332;38.646;-9.154;2022-12-07T02:44:14;124.37;;;27.53;;
4638;SDS011;2332;38.646;-9.154;2022-12-07T02:46:44;141.47;;;28.70;;
4638;SDS011;2332;38.646;-9.154;2022-12-07T02:49:13;167.10;;;31.37;;
4638;SDS011;2332;38.646;-9.154;2022-12-07T02:51:41;62.20;;;28.27;;
4638;SDS011;2332;38.646;-9.154;2022-12-07T02:54:12;75.73;;;29.07;;
4638;SDS011;2332;38.646;-9.154;2022-12-07T02:56:48;61.43;;;28.93;;
4638;SDS011;2332;38.646;-9.154;2022-12-07T02:59:36;69.67;;;28.43;;
4638;SDS011;2332;38.646;-9.154;2022-12-07T03:11:13;53.70;;;27.47;;
4638;SDS011;2332;38.646;-9.154;2022-12-07T03:13:42;53.30;;;26.87;;
4638;SDS011;2332;38.646;-9.154;2022-12-07T03:18:37;190.37;;;30.13;;
4638;SDS011;2332;38.646;-9.154;2022-12-07T03:21:15;171.20;;;30.50;;
4638;SDS011;2332;38.646;-9.154;2022-12-07T03:23:44;201.17;;;28.97;;
4638;SDS011;2332;38.646;-9.154;2022-12-07T03:26:12;134.07;;;29.27;;
4638;SDS011;2332;38.646;-9.154;2022-12-07T03:28:40;68.83;;;25.67;;
4638;SDS011;2332;38.646;-9.154;2022-12-07T03:36:14;254.00;;;31.43;;
4638;SDS011;2332;38.646;-9.154;2022-12-07T03:38:46;164.30;;;27.03;;
4638;SDS011;2332;38.646;-9.154;2022-12-07T03:41:22;126.40;;;24.30;;
4638;SDS011;2332;38.646;-9.154;2022-12-07T03:43:50;65.53;;;22.87;;
4638;SDS011;2332;38.646;-9.154;2022-12-07T03:51:55;91.30;;;22.67;;
4638;SDS011;2332;38.646;-9.154;2022-12-07T03:54:35;313.80;;;25.23;;
4638;SDS011;2332;38.646;-9.154;2022-12-07T03:57:04;103.37;;;22.93;;
4638;SDS011;2332;38.646;-9.154;2022-12-07T03:59:30;77.97;;;22.87;;
4638;SDS011;2332;38.646;-9.154;2022-12-07T04:01:57;64.87;;;21.23;;
4638;SDS011;2332;38.646;-9.154;2022-12-07T04:04:27;114.23;;;25.23;;
4638;SDS011;2332;38.646;-9.154;2022-12-07T04:06:53;240.73;;;29.30;;
4638;SDS011;2332;38.646;-9.154;2022-12-07T04:09:19;202.77;;;25.10;;
4638;SDS011;2332;38.646;-9.154;2022-12-07T04:11:44;364.77;;;29.50;;
4638;SDS011;2332;38.646;-9.154;2022-12-07T04:14:10;256.57;;;26.10;;
4638;SDS011;2332;38.646;-9.154;2022-12-07T04:16:55;102.87;;;25.23;;
4638;SDS011;2332;38.646;-9.154;2022-12-07T04:19:25;230.90;;;29.43;;
4638;SDS011;2332;38.646;-9.154;2022-12-07T04:21:53;147.47;;;28.20;;
4638;SDS011;2332;38.646;-9.154;2022-12-07T04:24:19;198.40;;;28.67;;
4638;SDS011;2332;38.646;-9.154;2022-12-07T04:26:45;185.23;;;27.40;;
4638;SDS011;2332;38.646;-9.154;2022-12-07T04:29:11;132.00;;;27.33;;
4638;SDS011;2332;38.646;-9.154;2022-12-07T04:31:37;207.90;;;29.27;;
4638;SDS011;2332;38.646;-9.154;2022-12-07T04:34:03;118.03;;;25.13;;
4638;SDS011;2332;38.646;-9.154;2022-12-07T04:36:29;54.37;;;24.90;;
4638;SDS011;2332;38.646;-9.154;2022-12-07T04:38:55;121.17;;;25.70;;
4638;SDS011;2332;38.646;-9.154;2022-12-07T04:41:21;77.30;;;23.97;;
4638;SDS011;2332;38.646;-9.154;2022-12-07T04:43:53;93.00;;;23.73;;
4638;SDS011;2332;38.646;-9.154;2022-12-07T04:46:20;95.33;;;24.80;;
4638;SDS011;2332;38.646;-9.154;2022-12-07T04:48:45;245.63;;;28.30;;
4638;SDS011;2332;38.646;-9.154;2022-12-07T04:51:11;58.13;;;23.37;;
4638;SDS011;2332;38.646;-9.154;2022-12-07T04:53:43;65.23;;;23.67;;
4638;SDS011;2332;38.646;-9.154;2022-12-07T04:56:09;93.07;;;22.87;;
4638;SDS011;2332;38.646;-9.154;2022-12-07T04:58:34;53.40;;;23.60;;
4638;SDS011;2332;38.646;-9.154;2022-12-07T05:01:00;50.33;;;22.63;;
4638;SDS011;2332;38.646;-9.154;2022-12-07T05:03:25;48.40;;;21.20;;
4638;SDS011;2332;38.646;-9.154;2022-12-07T05:05:51;54.63;;;22.20;;
4638;SDS011;2332;38.646;-9.154;2022-12-07T05:08:17;49.00;;;21.67;;
4638;SDS011;2332;38.646;-9.154;2022-12-07T05:10:42;46.47;;;20.23;;
4638;SDS011;2332;38.646;-9.154;2022-12-07T05:13:08;51.57;;;20.20;;
4638;SDS011;2332;38.646;-9.154;2022-12-07T05:15:33;48.20;;;20.60;;
4638;SDS011;2332;38.646;-9.154;2022-12-07T05:17:59;54.37;;;20.90;;
4638;SDS011;2332;38.646;-9.154;2022-12-07T05:20:24;42.90;;;20.87;;
4638;SDS011;2332;38.646;-9.154;2022-12-07T05:22:50;48.07;;;20.70;;
4638;SDS011;2332;38.646;-9.154;2022-12-07T05:25:15;58.10;;;20.73;;
4638;SDS011;2332;38.646;-9.154;2022-12-07T05:27:41;61.90;;;20.37;;
4638;SDS011;2332;38.646;-9.154;2022-12-07T05:30:07;40.50;;;19.30;;
4638;SDS011;2332;38.646;-9.154;2022-12-07T05:32:33;41.87;;;18.83;;
4638;SDS011;2332;38.646;-9.154;2022-12-07T05:34:58;57.53;;;21.37;;
4638;SDS011;2332;38.646;-9.154;2022-12-07T05:37:24;44.00;;;20.10;;
4638;SDS011;2332;38.646;-9.154;2022-12-07T05:39:49;88.87;;;20.40;;
4638;SDS011;2332;38.646;-9.154;2022-12-07T05:42:15;45.20;;;20.73;;
4638;SDS011;2332;38.646;-9.154;2022-12-07T05:44:43;51.30;;;17.27;;
4638;SDS011;2332;38.646;-9.154;2022-12-07T05:47:13;40.93;;;16.43;;
4638;SDS011;2332;38.646;-9.154;2022-12-07T05:49:40;55.87;;;16.27;;
4638;SDS011;2332;38.646;-9.154;2022-12-07T05:52:06;57.13;;;16.07;;
4638;SDS011;2332;38.646;-9.154;2022-12-07T05:54:31;80.10;;;17.20;;
4638;SDS011;2332;38.646;-9.154;2022-12-07T05:56:58;66.93;;;16.60;;
4638;SDS011;2332;38.646;-9.154;2022-12-07T05:59:23;54.17;;;15.50;;
4638;SDS011;2332;38.646;-9.154;2022-12-07T06:01:50;26.20;;;15.43;;
4638;SDS011;2332;38.646;-9.154;2022-12-07T06:04:20;55.03;;;16.20;;
4638;SDS011;2332;38.646;-9.154;2022-12-07T06:06:46;67.17;;;16.63;;
4638;SDS011;2332;38.646;-9.154;2022-12-07T06:09:11;42.90;;;15.27;;
4638;SDS011;2332;38.646;-9.154;2022-12-07T06:11:40;47.60;;;15.13;;
4638;SDS011;2332;38.646;-9.154;2022-12-07T06:14:24;93.33;;;16.13;;
4638;SDS011;2332;38.646;-9.154;2022-12-07T06:16:50;116.10;;;16.77;;
4638;SDS011;2332;38.646;-9.154;2022-12-07T06:19:16;47.60;;;13.03;;
4638;SDS011;2332;38.646;-9.154;2022-12-07T06:21:42;54.83;;;14.10;;
4638;SDS011;2332;38.646;-9.154;2022-12-07T06:24:09;28.60;;;12.93;;
4638;SDS011;2332;38.646;-9.154;2022-12-07T06:26:36;180.97;;;15.97;;
4638;SDS011;2332;38.646;-9.154;2022-12-07T06:29:02;146.77;;;16.37;;
4638;SDS011;2332;38.646;-9.154;2022-12-07T06:31:28;137.10;;;15.90;;
4638;SDS011;2332;38.646;-9.154;2022-12-07T06:33:58;60.80;;;14.17;;
4638;SDS011;2332;38.646;-9.154;2022-12-07T06:36:24;176.10;;;16.07;;
4638;SDS011;2332;38.646;-9.154;2022-12-07T06:38:49;56.43;;;11.53;;
4638;SDS011;2332;38.646;-9.154;2022-12-07T06:41:15;125.23;;;14.00;;
4638;SDS011;2332;38.646;-9.154;2022-12-07T06:43:40;33.70;;;12.80;;
4638;SDS011;2332;38.646;-9.154;2022-12-07T06:46:07;66.43;;;12.73;;
4638;SDS011;2332;38.646;-9.154;2022-12-07T06:48:32;56.73;;;13.03;;
4638;SDS011;2332;38.646;-9.154;2022-12-07T06:50:58;50.10;;;13.60;;
4638;SDS011;2332;38.646;-9.154;2022-12-07T06:53:23;63.30;;;14.50;;
4638;SDS011;2332;38.646;-9.154;2022-12-07T06:55:49;136.53;;;16.50;;
4638;SDS011;2332;38.646;-9.154;2022-12-07T06:58:15;53.23;;;14.57;;
4638;SDS011;2332;38.646;-9.154;2022-12-07T07:00:42;111.10;;;15.57;;
4638;SDS011;2332;38.646;-9.154;2022-12-07T07:03:08;149.97;;;17.80;;
4638;SDS011;2332;38.646;-9.154;2022-12-07T07:05:34;152.67;;;19.63;;
4638;SDS011;2332;38.646;-9.154;2022-12-07T07:07:59;155.47;;;20.73;;
4638;SDS011;2332;38.646;-9.154;2022-12-07T07:10:25;116.30;;;20.03;;
4638;SDS011;2332;38.646;-9.154;2022-12-07T07:12:50;106.30;;;20.03;;
4638;SDS011;2332;38.646;-9.154;2022-12-07T07:15:16;127.17;;;21.40;;
4638;SDS011;2332;38.646;-9.154;2022-12-07T07:17:42;142.53;;;22.90;;
4638;SDS011;2332;38.646;-9.154;2022-12-07T07:20:08;110.97;;;23.27;;
4638;SDS011;2332;38.646;-9.154;2022-12-07T07:22:34;44.03;;;19.90;;
4638;SDS011;2332;38.646;-9.154;2022-12-07T07:24:59;61.30;;;19.90;;
4638;SDS011;2332;38.646;-9.154;2022-12-07T07:27:25;48.97;;;20.40;;
4638;SDS011;2332;38.646;-9.154;2022-12-07T07:29:50;38.60;;;21.00;;
4638;SDS011;2332;38.646;-9.154;2022-12-07T07:32:16;39.40;;;18.57;;
4638;SDS011;2332;38.646;-9.154;2022-12-07T07:34:42;37.10;;;19.27;;
4638;SDS011;2332;38.646;-9.154;2022-12-07T07:37:07;42.00;;;19.07;;
4638;SDS011;2332;38.646;-9.154;2022-12-07T07:39:33;36.30;;;17.80;;
4638;SDS011;2332;38.646;-9.154;2022-12-07T07:41:58;34.73;;;17.70;;
4638;SDS011;2332;38.646;-9.154;2022-12-07T07:44:24;34.10;;;16.87;;
4638;SDS011;2332;38.646;-9.154;2022-12-07T07:46:49;34.43;;;17.07;;
4638;SDS011;2332;38.646;-9.154;2022-12-07T07:49:15;39.60;;;16.87;;
4638;SDS011;2332;38.646;-9.154;2022-12-07T07:51:40;29.43;;;17.13;;
4638;SDS011;2332;38.646;-9.154;2022-12-07T07:54:06;40.43;;;16.53;;
4638;SDS011;2332;38.646;-9.154;2022-12-07T07:56:31;35.30;;;16.93;;
4638;SDS011;2332;38.646;-9.154;2022-12-07T07:58:57;28.73;;;15.83;;
4638;SDS011;2332;38.646;-9.154;2022-12-07T08:01:22;36.40;;;17.57;;
4638;SDS011;2332;38.646;-9.154;2022-12-07T08:03:48;31.47;;;15.47;;
4638;SDS011;2332;38.646;-9.154;2022-12-07T08:06:14;25.13;;;14.70;;
4638;SDS011;2332;38.646;-9.154;2022-12-07T08:08:39;29.90;;;15.70;;
4638;SDS011;2332;38.646;-9.154;2022-12-07T08:11:05;31.10;;;16.00;;
4638;SDS011;2332;38.646;-9.154;2022-12-07T08:13:31;24.30;;;13.63;;
4638;SDS011;2332;38.646;-9.154;2022-12-07T08:15:57;25.70;;;14.80;;
4638;SDS011;2332;38.646;-9.154;2022-12-07T08:18:23;22.67;;;14.87;;
4638;SDS011;2332;38.646;-9.154;2022-12-07T08:20:48;30.53;;;14.37;;
4638;SDS011;2332;38.646;-9.154;2022-12-07T08:23:14;26.37;;;13.87;;
4638;SDS011;2332;38.646;-9.154;2022-12-07T08:25:39;23.83;;;13.27;;
4638;SDS011;2332;38.646;-9.154;2022-12-07T08:28:05;20.63;;;12.43;;
4638;SDS011;2332;38.646;-9.154;2022-12-07T08:30:31;20.33;;;12.43;;
4638;SDS011;2332;38.646;-9.154;2022-12-07T08:32:57;21.63;;;12.30;;
4638;SDS011;2332;38.646;-9.154;2022-12-07T08:35:23;18.70;;;11.83;;
4638;SDS011;2332;38.646;-9.154;2022-12-07T08:37:49;23.20;;;12.97;;
4638;SDS011;2332;38.646;-9.154;2022-12-07T08:40:15;16.60;;;11.63;;
4638;SDS011;2332;38.646;-9.154;2022-12-07T08:42:43;21.27;;;11.80;;
4638;SDS011;2332;38.646;-9.154;2022-12-07T08:45:16;24.40;;;13.60;;
4638;SDS011;2332;38.646;-9.154;2022-12-07T08:48:02;25.40;;;16.50;;
4638;SDS011;2332;38.646;-9.154;2022-12-07T08:50:31;16.80;;;11.57;;
4638;SDS011;2332;38.646;-9.154;2022-12-07T08:52:57;20.10;;;12.43;;
4638;SDS011;2332;38.646;-9.154;2022-12-07T08:55:24;21.77;;;11.90;;
4638;SDS011;2332;38.646;-9.154;2022-12-07T08:57:50;22.30;;;11.80;;
4638;SDS011;2332;38.646;-9.154;2022-12-07T09:00:16;17.83;;;11.70;;
4638;SDS011;2332;38.646;-9.154;2022-12-07T09:02:43;22.63;;;12.37;;
4638;SDS011;2332;38.646;-9.154;2022-12-07T09:05:09;21.30;;;10.90;;
4638;SDS011;2332;38.646;-9.154;2022-12-07T09:07:35;19.03;;;11.30;;
4638;SDS011;2332;38.646;-9.154;2022-12-07T09:10:00;16.30;;;11.30;;
4638;SDS011;2332;38.646;-9.154;2022-12-07T09:12:26;19.93;;;12.03;;
4638;SDS011;2332;38.646;-9.154;2022-12-07T09:14:51;17.10;;;11.23;;
4638;SDS011;2332;38.646;-9.154;2022-12-07T09:17:17;14.40;;;10.30;;
4638;SDS011;2332;38.646;-9.154;2022-12-07T09:19:43;20.27;;;11.37;;
4638;SDS011;2332;38.646;-9.154;2022-12-07T09:22:08;20.03;;;11.77;;
4638;SDS011;2332;38.646;-9.154;2022-12-07T09:24:34;17.00;;;11.20;;
4638;SDS011;2332;38.646;-9.154;2022-12-07T09:27:00;21.10;;;11.97;;
4638;SDS011;2332;38.646;-9.154;2022-12-07T09:29:25;16.93;;;11.60;;
4638;SDS011;2332;38.646;-9.154;2022-12-07T09:31:51;19.83;;;11.60;;
4638;SDS011;2332;38.646;-9.154;2022-12-07T09:34:17;18.73;;;12.17;;
4638;SDS011;2332;38.646;-9.154;2022-12-07T09:36:43;17.50;;;12.40;;
4638;SDS011;2332;38.646;-9.154;2022-12-07T09:39:09;17.50;;;12.50;;
4638;SDS011;2332;38.646;-9.154;2022-12-07T09:41:37;21.00;;;12.77;;
4638;SDS011;2332;38.646;-9.154;2022-12-07T09:44:08;25.13;;;14.17;;
4638;SDS011;2332;38.646;-9.154;2022-12-07T09:46:36;23.37;;;15.30;;
4638;SDS011;2332;38.646;-9.154;2022-12-07T09:49:05;24.37;;;14.70;;
4638;SDS011;2332;38.646;-9.154;2022-12-07T09:51:39;26.57;;;15.13;;
4638;SDS011;2332;38.646;-9.154;2022-12-07T09:54:05;22.93;;;14.80;;
4638;SDS011;2332;38.646;-9.154;2022-12-07T09:56:30;24.80;;;15.90;;
4638;SDS011;2332;38.646;-9.154;2022-12-07T09:59:00;27.70;;;17.40;;
4638;SDS011;2332;38.646;-9.154;2022-12-07T10:01:28;28.60;;;17.97;;
4638;SDS011;2332;38.646;-9.154;2022-12-07T10:03:59;31.40;;;18.10;;
4638;SDS011;2332;38.646;-9.154;2022-12-07T10:06:30;30.00;;;17.33;;
4638;SDS011;2332;38.646;-9.154;2022-12-07T10:08:56;31.40;;;17.20;;
4638;SDS011;2332;38.646;-9.154;2022-12-07T10:11:21;29.57;;;17.67;;
4638;SDS011;2332;38.646;-9.154;2022-12-07T10:13:48;27.80;;;18.77;;
4638;SDS011;2332;38.646;-9.154;2022-12-07T10:18:53;37.87;;;21.57;;
4638;SDS011;2332;38.646;-9.154;2022-12-07T10:21:20;41.70;;;22.27;;
4638;SDS011;2332;38.646;-9.154;2022-12-07T10:26:28;38.07;;;21.97;;
4638;SDS011;2332;38.646;-9.154;2022-12-07T10:29:04;39.23;;;20.50;;
4638;SDS011;2332;38.646;-9.154;2022-12-07T10:31:38;34.23;;;19.47;;
4638;SDS011;2332;38.646;-9.154;2022-12-07T10:34:12;34.67;;;20.37;;
4638;SDS011;2332;38.646;-9.154;2022-12-07T10:36:45;28.57;;;17.23;;
4638;SDS011;2332;38.646;-9.154;2022-12-07T10:39:12;31.60;;;17.83;;
4638;SDS011;2332;38.646;-9.154;2022-12-07T10:41:58;27.23;;;16.97;;
4638;SDS011;2332;38.646;-9.154;2022-12-07T10:44:29;22.63;;;16.40;;
4638;SDS011;2332;38.646;-9.154;2022-12-07T10:47:12;26.27;;;16.90;;
4638;SDS011;2332;38.646;-9.154;2022-12-07T10:52:58;24.00;;;16.47;;
4638;SDS011;2332;38.646;-9.154;2022-12-07T11:00:54;30.83;;;17.87;;
4638;SDS011;2332;38.646;-9.154;2022-12-07T11:08:43;24.07;;;16.53;;
4638;SDS011;2332;38.646;-9.154;2022-12-07T11:11:34;25.27;;;16.27;;
4638;SDS011;2332;38.646;-9.154;2022-12-07T11:22:03;21.50;;;13.93;;
4638;SDS011;2332;38.646;-9.154;2022-12-07T11:24:42;21.60;;;12.87;;
4638;SDS011;2332;38.646;-9.154;2022-12-07T11:37:47;17.57;;;11.90;;
4638;SDS011;2332;38.646;-9.154;2022-12-07T11:40:25;16.30;;;10.80;;
4638;SDS011;2332;38.646;-9.154;2022-12-07T11:45:42;19.17;;;11.13;;
4638;SDS011;2332;38.646;-9.154;2022-12-07T11:48:17;15.20;;;9.40;;
4638;SDS011;2332;38.646;-9.154;2022-12-07T11:50:59;21.80;;;10.17;;
4638;SDS011;2332;38.646;-9.154;2022-12-07T11:53:27;15.57;;;10.40;;
4638;SDS011;2332;38.646;-9.154;2022-12-07T11:55:57;14.33;;;9.00;;
4638;SDS011;2332;38.646;-9.154;2022-12-07T11:58:38;19.20;;;10.30;;
4638;SDS011;2332;38.646;-9.154;2022-12-07T12:03:45;16.00;;;10.57;;
4638;SDS011;2332;38.646;-9.154;2022-12-07T12:06:13;13.13;;;9.87;;
4638;SDS011;2332;38.646;-9.154;2022-12-07T12:08:43;15.30;;;10.53;;
4638;SDS011;2332;38.646;-9.154;2022-12-07T12:11:33;16.87;;;11.07;;
4638;SDS011;2332;38.646;-9.154;2022-12-07T12:19:42;17.63;;;10.00;;
4638;SDS011;2332;38.646;-9.154;2022-12-07T12:22:37;17.67;;;10.60;;
4638;SDS011;2332;38.646;-9.154;2022-12-07T12:25:06;14.90;;;9.73;;
4638;SDS011;2332;38.646;-9.154;2022-12-07T12:27:38;16.57;;;10.30;;
4638;SDS011;2332;38.646;-9.154;2022-12-07T12:30:05;16.03;;;10.03;;
4638;SDS011;2332;38.646;-9.154;2022-12-07T12:32:36;14.27;;;9.10;;
4638;SDS011;2332;38.646;-9.154;2022-12-07T12:37:48;17.77;;;9.33;;
4638;SDS011;2332;38.646;-9.154;2022-12-07T12:42:46;14.63;;;9.67;;
4638;SDS011;2332;38.646;-9.154;2022-12-07T12:45:20;14.80;;;9.73;;
4638;SDS011;2332;38.646;-9.154;2022-12-07T12:47:54;15.57;;;9.60;;
4638;SDS011;2332;38.646;-9.154;2022-12-07T12:50:23;16.63;;;10.00;;
4638;SDS011;2332;38.646;-9.154;2022-12-07T12:52:58;17.53;;;11.10;;
4638;SDS011;2332;38.646;-9.154;2022-12-07T12:58:29;16.17;;;9.50;;
4638;SDS011;2332;38.646;-9.154;2022-12-07T13:04:01;16.07;;;8.67;;
4638;SDS011;2332;38.646;-9.154;2022-12-07T13:06:32;15.77;;;9.47;;
4638;SDS011;2332;38.646;-9.154;2022-12-07T13:09:00;16.30;;;10.00;;
4638;SDS011;2332;38.646;-9.154;2022-12-07T13:11:32;14.70;;;10.17;;
4638;SDS011;2332;38.646;-9.154;2022-12-07T13:17:02;13.10;;;9.57;;
4638;SDS011;2332;38.646;-9.154;2022-12-07T13:27:43;13.77;;;9.30;;
4638;SDS011;2332;38.646;-9.154;2022-12-07T13:30:22;12.67;;;9.20;;
4638;SDS011;2332;38.646;-9.154;2022-12-07T13:32:52;13.63;;;9.17;;
4638;SDS011;2332;38.646;-9.154;2022-12-07T13:37:54;10.60;;;8.63;;
4638;SDS011;2332;38.646;-9.154;2022-12-07T13:40:20;14.03;;;8.47;;
4638;SDS011;2332;38.646;-9.154;2022-12-07T13:42:47;15.47;;;9.13;;
4638;SDS011;2332;38.646;-9.154;2022-12-07T13:48:10;12.20;;;8.57;;
4638;SDS011;2332;38.646;-9.154;2022-12-07T13:50:41;8.43;;;7.53;;
4638;SDS011;2332;38.646;-9.154;2022-12-07T13:53:10;11.30;;;8.50;;
4638;SDS011;2332;38.646;-9.154;2022-12-07T13:55:44;12.93;;;7.90;;
4638;SDS011;2332;38.646;-9.154;2022-12-07T13:58:10;14.20;;;8.90;;
4638;SDS011;2332;38.646;-9.154;2022-12-07T14:00:36;12.00;;;8.53;;
4638;SDS011;2332;38.646;-9.154;2022-12-07T14:03:03;11.63;;;9.03;;
4638;SDS011;2332;38.646;-9.154;2022-12-07T14:05:44;11.93;;;9.00;;
4638;SDS011;2332;38.646;-9.154;2022-12-07T14:10:37;14.97;;;9.20;;
4638;SDS011;2332;38.646;-9.154;2022-12-07T14:15:55;12.77;;;8.87;;
4638;SDS011;2332;38.646;-9.154;2022-12-07T14:18:27;11.83;;;8.80;;
4638;SDS011;2332;38.646;-9.154;2022-12-07T14:23:36;14.43;;;10.10;;
4638;SDS011;2332;38.646;-9.154;2022-12-07T14:26:16;16.63;;;10.37;;
4638;SDS011;2332;38.646;-9.154;2022-12-07T14:28:45;14.33;;;9.67;;
4638;SDS011;2332;38.646;-9.154;2022-12-07T14:31:11;16.77;;;9.93;;
4638;SDS011;2332;38.646;-9.154;2022-12-07T14:33:41;12.00;;;8.60;;
4638;SDS011;2332;38.646;-9.154;2022-12-07T14:36:16;16.17;;;10.90;;
4638;SDS011;2332;38.646;-9.154;2022-12-07T14:38:41;14.80;;;10.27;;
4638;SDS011;2332;38.646;-9.154;2022-12-07T14:41:11;11.07;;;8.90;;
4638;SDS011;2332;38.646;-9.154;2022-12-07T14:43:58;14.63;;;9.87;;
4638;SDS011;2332;38.646;-9.154;2022-12-07T14:46:23;12.23;;;9.27;;
4638;SDS011;2332;38.646;-9.154;2022-12-07T14:48:49;12.57;;;9.70;;
4638;SDS011;2332;38.646;-9.154;2022-12-07T14:51:15;14.93;;;9.17;;
4638;SDS011;2332;38.646;-9.154;2022-12-07T14:53:42;12.77;;;9.90;;
4638;SDS011;2332;38.646;-9.154;2022-12-07T14:56:13;18.33;;;10.80;;
4638;SDS011;2332;38.646;-9.154;2022-12-07T14:58:39;16.53;;;9.60;;
4638;SDS011;2332;38.646;-9.154;2022-12-07T15:01:05;17.80;;;9.83;;
4638;SDS011;2332;38.646;-9.154;2022-12-07T15:03:30;17.87;;;9.50;;
4638;SDS011;2332;38.646;-9.154;2022-12-07T15:05:56;13.90;;;9.83;;
4638;SDS011;2332;38.646;-9.154;2022-12-07T15:08:22;11.03;;;9.00;;
4638;SDS011;2332;38.646;-9.154;2022-12-07T15:10:47;16.70;;;9.80;;
4638;SDS011;2332;38.646;-9.154;2022-12-07T15:13:13;14.20;;;10.80;;
4638;SDS011;2332;38.646;-9.154;2022-12-07T15:15:57;13.63;;;10.27;;
4638;SDS011;2332;38.646;-9.154;2022-12-07T15:18:23;14.57;;;9.97;;
4638;SDS011;2332;38.646;-9.154;2022-12-07T15:20:49;20.43;;;10.63;;
4638;SDS011;2332;38.646;-9.154;2022-12-07T15:23:15;12.90;;;9.53;;
4638;SDS011;2332;38.646;-9.154;2022-12-07T15:25:41;12.50;;;9.40;;
4638;SDS011;2332;38.646;-9.154;2022-12-07T15:28:07;11.30;;;8.90;;
4638;SDS011;2332;38.646;-9.154;2022-12-07T15:30:33;14.50;;;9.43;;
4638;SDS011;2332;38.646;-9.154;2022-12-07T15:32:58;20.07;;;11.30;;
4638;SDS011;2332;38.646;-9.154;2022-12-07T15:35:24;11.63;;;9.70;;
4638;SDS011;2332;38.646;-9.154;2022-12-07T15:37:49;18.93;;;9.53;;
4638;SDS011;2332;38.646;-9.154;2022-12-07T15:40:15;13.57;;;8.83;;
4638;SDS011;2332;38.646;-9.154;2022-12-07T15:42:40;12.30;;;9.03;;
4638;SDS011;2332;38.646;-9.154;2022-12-07T15:45:07;13.47;;;9.47;;
4638;SDS011;2332;38.646;-9.154;2022-12-07T15:47:35;13.73;;;8.77;;
4638;SDS011;2332;38.646;-9.154;2022-12-07T15:50:11;11.73;;;8.23;;
4638;SDS011;2332;38.646;-9.154;2022-12-07T15:52:38;13.20;;;9.47;;
4638;SDS011;2332;38.646;-9.154;2022-12-07T15:55:04;13.87;;;8.50;;
4638;SDS011;2332;38.646;-9.154;2022-12-07T15:57:31;13.33;;;8.40;;
4638;SDS011;2332;38.646;-9.154;2022-12-07T16:00:02;16.83;;;8.20;;
4638;SDS011;2332;38.646;-9.154;2022-12-07T16:02:29;10.03;;;8.03;;
4638;SDS011;2332;38.646;-9.154;2022-12-07T16:04:54;15.23;;;8.70;;
4638;SDS011;2332;38.646;-9.154;2022-12-07T16:07:20;11.53;;;8.10;;
4638;SDS011;2332;38.646;-9.154;2022-12-07T16:09:46;11.13;;;8.80;;
4638;SDS011;2332;38.646;-9.154;2022-12-07T16:12:12;12.10;;;8.93;;
4638;SDS011;2332;38.646;-9.154;2022-12-07T16:14:38;15.10;;;9.33;;
4638;SDS011;2332;38.646;-9.154;2022-12-07T16:17:05;11.10;;;8.20;;
4638;SDS011;2332;38.646;-9.154;2022-12-07T16:19:31;15.20;;;8.77;;
4638;SDS011;2332;38.646;-9.154;2022-12-07T16:21:57;11.73;;;8.03;;
4638;SDS011;2332;38.646;-9.154;2022-12-07T16:24:24;12.63;;;8.70;;
4638;SDS011;2332;38.646;-9.154;2022-12-07T16:26:50;11.20;;;8.17;;
4638;SDS011;2332;38.646;-9.154;2022-12-07T16:29:16;9.33;;;8.30;;
4638;SDS011;2332;38.646;-9.154;2022-12-07T16:31:43;11.67;;;8.03;;
4638;SDS011;2332;38.646;-9.154;2022-12-07T16:34:08;11.33;;;7.97;;
4638;SDS011;2332;38.646;-9.154;2022-12-07T16:36:34;13.87;;;8.97;;
4638;SDS011;2332;38.646;-9.154;2022-12-07T16:39:00;13.37;;;8.30;;
4638;SDS011;2332;38.646;-9.154;2022-12-07T16:41:26;12.20;;;9.10;;
4638;SDS011;2332;38.646;-9.154;2022-12-07T16:43:52;9.30;;;8.30;;